sensor_id;sensor_type;location;lat;lon;timestamp;temperature;humidity
6256;DHT22;3161;48.794;9.784;2022-12-29T00:00:06;4.90;99.90
6256;DHT22;3161;48.794;9.784;2022-12-29T00:02:34;4.90;99.90
6256;DHT22;3161;48.794;9.784;2022-12-29T00:05:02;4.90;99.90
6256;DHT22;3161;48.794;9.784;2022-12-29T00:07:29;4.80;99.90
6256;DHT22;3161;48.794;9.784;2022-12-29T00:09:57;4.80;99.90
6256;DHT22;3161;48.794;9.784;2022-12-29T00:12:24;4.90;99.90
6256;DHT22;3161;48.794;9.784;2022-12-29T00:14:54;4.80;99.90
6256;DHT22;3161;48.794;9.784;2022-12-29T00:17:35;4.90;99.90
6256;DHT22;3161;48.794;9.784;2022-12-29T00:20:03;4.90;99.90
6256;DHT22;3161;48.794;9.784;2022-12-29T00:22:48;4.90;99.90
6256;DHT22;3161;48.794;9.784;2022-12-29T00:25:35;4.90;99.90
6256;DHT22;3161;48.794;9.784;2022-12-29T00:28:20;4.90;99.90
6256;DHT22;3161;48.794;9.784;2022-12-29T00:31:10;4.90;99.90
6256;DHT22;3161;48.794;9.784;2022-12-29T00:33:50;4.90;99.90
6256;DHT22;3161;48.794;9.784;2022-12-29T00:36:38;4.90;99.90
6256;DHT22;3161;48.794;9.784;2022-12-29T00:39:14;4.90;99.90
6256;DHT22;3161;48.794;9.784;2022-12-29T00:42:08;5.00;99.90
6256;DHT22;3161;48.794;9.784;2022-12-29T00:44:54;5.00;99.90
6256;DHT22;3161;48.794;9.784;2022-12-29T00:47:21;5.00;99.90
6256;DHT22;3161;48.794;9.784;2022-12-29T00:49:49;5.10;99.90
6256;DHT22;3161;48.794;9.784;2022-12-29T00:52:16;5.10;99.90
6256;DHT22;3161;48.794;9.784;2022-12-29T00:54:44;5.10;99.90
6256;DHT22;3161;48.794;9.784;2022-12-29T00:57:12;5.10;99.90
6256;DHT22;3161;48.794;9.784;2022-12-29T00:59:41;5.20;99.90
6256;DHT22;3161;48.794;9.784;2022-12-29T01:02:09;5.20;99.90
6256;DHT22;3161;48.794;9.784;2022-12-29T01:04:37;5.20;99.90
6256;DHT22;3161;48.794;9.784;2022-12-29T01:07:05;5.20;99.90
6256;DHT22;3161;48.794;9.784;2022-12-29T01:09:32;5.20;99.90
6256;DHT22;3161;48.794;9.784;2022-12-29T01:12:18;5.30;99.90
6256;DHT22;3161;48.794;9.784;2022-12-29T01:14:47;5.30;99.90
6256;DHT22;3161;48.794;9.784;2022-12-29T01:17:15;5.30;99.90
6256;DHT22;3161;48.794;9.784;2022-12-29T01:19:42;5.30;99.90
6256;DHT22;3161;48.794;9.784;2022-12-29T01:22:10;5.40;99.90
6256;DHT22;3161;48.794;9.784;2022-12-29T01:24:37;5.30;99.90
6256;DHT22;3161;48.794;9.784;2022-12-29T01:27:05;5.30;99.90
6256;DHT22;3161;48.794;9.784;2022-12-29T01:29:32;5.30;99.90
6256;DHT22;3161;48.794;9.784;2022-12-29T01:32:00;5.40;99.90
6256;DHT22;3161;48.794;9.784;2022-12-29T01:34:27;5.40;99.90
6256;DHT22;3161;48.794;9.784;2022-12-29T01:36:55;5.40;99.90
6256;DHT22;3161;48.794;9.784;2022-12-29T01:39:22;5.40;99.90
6256;DHT22;3161;48.794;9.784;2022-12-29T01:41:50;5.50;99.90
6256;DHT22;3161;48.794;9.784;2022-12-29T01:44:47;5.50;99.90
6256;DHT22;3161;48.794;9.784;2022-12-29T01:47:08;5.50;99.90
6256;DHT22;3161;48.794;9.784;2022-12-29T01:49:36;5.50;99.90
6256;DHT22;3161;48.794;9.784;2022-12-29T01:52:05;5.60;99.90
6256;DHT22;3161;48.794;9.784;2022-12-29T01:54:42;5.60;99.90
6256;DHT22;3161;48.794;9.784;2022-12-29T01:57:19;5.60;99.90
6256;DHT22;3161;48.794;9.784;2022-12-29T01:59:50;5.60;99.90
6256;DHT22;3161;48.794;9.784;2022-12-29T02:02:29;5.70;99.90
6256;DHT22;3161;48.794;9.784;2022-12-29T02:05:14;5.70;99.90
6256;DHT22;3161;48.794;9.784;2022-12-29T02:07:41;5.70;99.90
6256;DHT22;3161;48.794;9.784;2022-12-29T02:10:09;5.70;99.90
6256;DHT22;3161;48.794;9.784;2022-12-29T02:12:37;5.80;99.90
6256;DHT22;3161;48.794;9.784;2022-12-29T02:15:05;5.80;99.90
6256;DHT22;3161;48.794;9.784;2022-12-29T02:17:41;5.90;99.90
6256;DHT22;3161;48.794;9.784;2022-12-29T02:20:27;5.90;99.90
6256;DHT22;3161;48.794;9.784;2022-12-29T02:25:55;5.90;99.90
6256;DHT22;3161;48.794;9.784;2022-12-29T02:31:23;5.90;99.90
6256;DHT22;3161;48.794;9.784;2022-12-29T02:39:28;5.90;99.90
6256;DHT22;3161;48.794;9.784;2022-12-29T02:42:00;5.90;99.90
6256;DHT22;3161;48.794;9.784;2022-12-29T02:44:34;5.90;99.90
6256;DHT22;3161;48.794;9.784;2022-12-29T02:47:14;5.90;99.90
6256;DHT22;3161;48.794;9.784;2022-12-29T02:52:14;5.90;99.90
6256;DHT22;3161;48.794;9.784;2022-12-29T02:54:41;5.90;99.90
6256;DHT22;3161;48.794;9.784;2022-12-29T02:57:15;5.90;99.90
6256;DHT22;3161;48.794;9.784;2022-12-29T02:59:44;5.90;99.90
6256;DHT22;3161;48.794;9.784;2022-12-29T03:02:40;5.90;99.90
6256;DHT22;3161;48.794;9.784;2022-12-29T03:08:30;5.90;99.90
6256;DHT22;3161;48.794;9.784;2022-12-29T03:11:06;5.90;99.90
6256;DHT22;3161;48.794;9.784;2022-12-29T03:13:47;5.90;99.90
6256;DHT22;3161;48.794;9.784;2022-12-29T03:16:43;5.90;99.90
6256;DHT22;3161;48.794;9.784;2022-12-29T03:19:28;5.80;99.90
6256;DHT22;3161;48.794;9.784;2022-12-29T03:21:57;5.90;99.90
6256;DHT22;3161;48.794;9.784;2022-12-29T03:24:46;5.90;99.90
6256;DHT22;3161;48.794;9.784;2022-12-29T03:27:21;5.90;99.90
6256;DHT22;3161;48.794;9.784;2022-12-29T03:29:50;5.80;99.90
6256;DHT22;3161;48.794;9.784;2022-12-29T03:32:24;5.90;99.90
6256;DHT22;3161;48.794;9.784;2022-12-29T03:34:51;5.90;99.90
6256;DHT22;3161;48.794;9.784;2022-12-29T03:37:26;5.90;99.90
6256;DHT22;3161;48.794;9.784;2022-12-29T03:39:54;5.90;99.90
6256;DHT22;3161;48.794;9.784;2022-12-29T03:42:23;5.90;99.90
6256;DHT22;3161;48.794;9.784;2022-12-29T03:44:54;5.90;99.90
6256;DHT22;3161;48.794;9.784;2022-12-29T03:47:23;5.90;99.90
6256;DHT22;3161;48.794;9.784;2022-12-29T03:49:51;5.90;99.90
6256;DHT22;3161;48.794;9.784;2022-12-29T03:52:19;5.90;99.90
6256;DHT22;3161;48.794;9.784;2022-12-29T03:54:46;5.90;99.90
6256;DHT22;3161;48.794;9.784;2022-12-29T03:57:14;5.90;99.90
6256;DHT22;3161;48.794;9.784;2022-12-29T03:59:41;5.80;99.90
6256;DHT22;3161;48.794;9.784;2022-12-29T04:02:09;5.80;99.90
6256;DHT22;3161;48.794;9.784;2022-12-29T04:04:36;5.80;99.90
6256;DHT22;3161;48.794;9.784;2022-12-29T04:07:04;5.80;99.90
6256;DHT22;3161;48.794;9.784;2022-12-29T04:09:31;5.80;99.90
6256;DHT22;3161;48.794;9.784;2022-12-29T04:11:59;5.80;99.90
6256;DHT22;3161;48.794;9.784;2022-12-29T04:14:26;5.80;99.90
6256;DHT22;3161;48.794;9.784;2022-12-29T04:16:54;5.80;99.90
6256;DHT22;3161;48.794;9.784;2022-12-29T04:19:21;5.80;99.90
6256;DHT22;3161;48.794;9.784;2022-12-29T04:21:49;5.80;99.90
6256;DHT22;3161;48.794;9.784;2022-12-29T04:24:16;5.80;99.90
6256;DHT22;3161;48.794;9.784;2022-12-29T04:26:44;5.80;99.90
6256;DHT22;3161;48.794;9.784;2022-12-29T04:29:11;5.80;99.90
6256;DHT22;3161;48.794;9.784;2022-12-29T04:31:39;5.80;99.90
6256;DHT22;3161;48.794;9.784;2022-12-29T04:34:07;5.80;99.90
6256;DHT22;3161;48.794;9.784;2022-12-29T04:36:34;5.80;99.90
6256;DHT22;3161;48.794;9.784;2022-12-29T04:39:02;5.70;99.90
6256;DHT22;3161;48.794;9.784;2022-12-29T04:41:31;5.70;99.90
6256;DHT22;3161;48.794;9.784;2022-12-29T04:43:59;5.70;99.90
6256;DHT22;3161;48.794;9.784;2022-12-29T04:46:27;5.70;99.90
6256;DHT22;3161;48.794;9.784;2022-12-29T04:48:54;5.70;99.90
6256;DHT22;3161;48.794;9.784;2022-12-29T04:51:22;5.70;99.90
6256;DHT22;3161;48.794;9.784;2022-12-29T04:53:49;5.70;99.90
6256;DHT22;3161;48.794;9.784;2022-12-29T04:56:17;5.70;99.90
6256;DHT22;3161;48.794;9.784;2022-12-29T04:58:44;5.70;99.90
6256;DHT22;3161;48.794;9.784;2022-12-29T05:01:12;5.70;99.90
6256;DHT22;3161;48.794;9.784;2022-12-29T05:03:39;5.70;99.90
6256;DHT22;3161;48.794;9.784;2022-12-29T05:06:07;5.60;99.90
6256;DHT22;3161;48.794;9.784;2022-12-29T05:08:35;5.60;99.90
6256;DHT22;3161;48.794;9.784;2022-12-29T05:11:02;5.60;99.90
6256;DHT22;3161;48.794;9.784;2022-12-29T05:13:29;5.60;99.90
6256;DHT22;3161;48.794;9.784;2022-12-29T05:15:57;5.50;99.90
6256;DHT22;3161;48.794;9.784;2022-12-29T05:18:24;5.50;99.90
6256;DHT22;3161;48.794;9.784;2022-12-29T05:20:52;5.40;99.90
6256;DHT22;3161;48.794;9.784;2022-12-29T05:23:20;5.40;99.90
6256;DHT22;3161;48.794;9.784;2022-12-29T05:25:48;5.40;99.90
6256;DHT22;3161;48.794;9.784;2022-12-29T05:28:15;5.40;99.90
6256;DHT22;3161;48.794;9.784;2022-12-29T05:30:42;5.30;99.90
6256;DHT22;3161;48.794;9.784;2022-12-29T05:33:10;5.30;99.90
6256;DHT22;3161;48.794;9.784;2022-12-29T05:35:38;5.30;99.90
6256;DHT22;3161;48.794;9.784;2022-12-29T05:38:05;5.20;99.90
6256;DHT22;3161;48.794;9.784;2022-12-29T05:40:33;5.20;99.90
6256;DHT22;3161;48.794;9.784;2022-12-29T05:43:00;5.20;99.90
6256;DHT22;3161;48.794;9.784;2022-12-29T05:45:28;5.10;99.90
6256;DHT22;3161;48.794;9.784;2022-12-29T05:47:55;5.10;99.90
6256;DHT22;3161;48.794;9.784;2022-12-29T05:50:23;5.10;99.90
6256;DHT22;3161;48.794;9.784;2022-12-29T05:52:50;5.00;99.90
6256;DHT22;3161;48.794;9.784;2022-12-29T05:55:18;5.00;99.90
6256;DHT22;3161;48.794;9.784;2022-12-29T05:57:45;5.00;99.90
6256;DHT22;3161;48.794;9.784;2022-12-29T06:00:14;4.90;99.90
6256;DHT22;3161;48.794;9.784;2022-12-29T06:02:41;4.90;99.90
6256;DHT22;3161;48.794;9.784;2022-12-29T06:05:09;4.80;99.90
6256;DHT22;3161;48.794;9.784;2022-12-29T06:07:36;4.80;99.90
6256;DHT22;3161;48.794;9.784;2022-12-29T06:10:05;4.80;99.90
6256;DHT22;3161;48.794;9.784;2022-12-29T06:12:33;4.80;99.90
6256;DHT22;3161;48.794;9.784;2022-12-29T06:15:01;4.80;99.90
6256;DHT22;3161;48.794;9.784;2022-12-29T06:17:28;4.80;99.90
6256;DHT22;3161;48.794;9.784;2022-12-29T06:19:55;4.80;99.90
6256;DHT22;3161;48.794;9.784;2022-12-29T06:22:23;4.80;99.90
6256;DHT22;3161;48.794;9.784;2022-12-29T06:24:51;4.70;99.90
6256;DHT22;3161;48.794;9.784;2022-12-29T06:27:18;4.70;99.90
6256;DHT22;3161;48.794;9.784;2022-12-29T06:29:46;4.70;99.90
6256;DHT22;3161;48.794;9.784;2022-12-29T06:32:13;4.60;99.90
6256;DHT22;3161;48.794;9.784;2022-12-29T06:34:41;4.60;99.90
6256;DHT22;3161;48.794;9.784;2022-12-29T06:37:08;4.60;99.90
6256;DHT22;3161;48.794;9.784;2022-12-29T06:39:36;4.70;99.90
6256;DHT22;3161;48.794;9.784;2022-12-29T06:42:03;4.70;99.90
6256;DHT22;3161;48.794;9.784;2022-12-29T06:44:31;4.70;99.90
6256;DHT22;3161;48.794;9.784;2022-12-29T06:46:58;4.70;99.90
6256;DHT22;3161;48.794;9.784;2022-12-29T06:49:26;4.80;99.90
6256;DHT22;3161;48.794;9.784;2022-12-29T06:51:53;4.80;99.90
6256;DHT22;3161;48.794;9.784;2022-12-29T06:54:21;4.80;99.90
6256;DHT22;3161;48.794;9.784;2022-12-29T06:56:48;4.90;99.90
6256;DHT22;3161;48.794;9.784;2022-12-29T06:59:16;4.90;99.90
6256;DHT22;3161;48.794;9.784;2022-12-29T07:01:43;4.90;99.90
6256;DHT22;3161;48.794;9.784;2022-12-29T07:04:11;4.90;99.90
6256;DHT22;3161;48.794;9.784;2022-12-29T07:06:38;4.90;99.90
6256;DHT22;3161;48.794;9.784;2022-12-29T07:09:08;4.90;99.90
6256;DHT22;3161;48.794;9.784;2022-12-29T07:11:36;4.90;99.90
6256;DHT22;3161;48.794;9.784;2022-12-29T07:14:04;4.90;99.90
6256;DHT22;3161;48.794;9.784;2022-12-29T07:16:32;4.80;99.90
6256;DHT22;3161;48.794;9.784;2022-12-29T07:19:00;4.80;99.90
6256;DHT22;3161;48.794;9.784;2022-12-29T07:21:28;4.80;99.90
6256;DHT22;3161;48.794;9.784;2022-12-29T07:23:55;4.80;99.90
6256;DHT22;3161;48.794;9.784;2022-12-29T07:26:23;4.80;99.90
6256;DHT22;3161;48.794;9.784;2022-12-29T07:28:51;4.80;99.90
6256;DHT22;3161;48.794;9.784;2022-12-29T07:31:21;4.80;99.90
6256;DHT22;3161;48.794;9.784;2022-12-29T07:33:49;4.80;99.90
6256;DHT22;3161;48.794;9.784;2022-12-29T07:36:17;4.80;99.90
6256;DHT22;3161;48.794;9.784;2022-12-29T07:38:44;4.80;99.90
6256;DHT22;3161;48.794;9.784;2022-12-29T07:41:12;4.80;99.90
6256;DHT22;3161;48.794;9.784;2022-12-29T07:43:39;4.80;99.90
6256;DHT22;3161;48.794;9.784;2022-12-29T07:46:07;4.80;99.90
6256;DHT22;3161;48.794;9.784;2022-12-29T07:48:37;4.90;99.90
6256;DHT22;3161;48.794;9.784;2022-12-29T07:51:04;4.80;99.90
6256;DHT22;3161;48.794;9.784;2022-12-29T07:53:33;4.90;99.90
6256;DHT22;3161;48.794;9.784;2022-12-29T07:56:00;4.90;99.90
6256;DHT22;3161;48.794;9.784;2022-12-29T07:58:28;4.90;99.90
6256;DHT22;3161;48.794;9.784;2022-12-29T08:00:56;4.90;99.90
6256;DHT22;3161;48.794;9.784;2022-12-29T08:03:24;5.00;99.90
6256;DHT22;3161;48.794;9.784;2022-12-29T08:05:52;5.00;99.90
6256;DHT22;3161;48.794;9.784;2022-12-29T08:08:20;5.00;99.90
6256;DHT22;3161;48.794;9.784;2022-12-29T08:10:48;5.00;99.90
6256;DHT22;3161;48.794;9.784;2022-12-29T08:13:15;5.10;99.90
6256;DHT22;3161;48.794;9.784;2022-12-29T08:15:43;5.10;99.90
6256;DHT22;3161;48.794;9.784;2022-12-29T08:18:11;5.20;99.90
6256;DHT22;3161;48.794;9.784;2022-12-29T08:20:38;5.30;99.90
6256;DHT22;3161;48.794;9.784;2022-12-29T08:23:06;5.30;99.90
6256;DHT22;3161;48.794;9.784;2022-12-29T08:25:33;5.40;99.90
6256;DHT22;3161;48.794;9.784;2022-12-29T08:28:01;5.40;99.90
6256;DHT22;3161;48.794;9.784;2022-12-29T08:30:28;5.50;99.90
6256;DHT22;3161;48.794;9.784;2022-12-29T08:32:55;5.60;99.90
6256;DHT22;3161;48.794;9.784;2022-12-29T08:35:23;5.70;99.90
6256;DHT22;3161;48.794;9.784;2022-12-29T08:37:51;5.70;99.90
6256;DHT22;3161;48.794;9.784;2022-12-29T08:40:18;5.80;99.90
6256;DHT22;3161;48.794;9.784;2022-12-29T08:42:46;5.90;99.90
6256;DHT22;3161;48.794;9.784;2022-12-29T08:45:13;6.00;99.90
6256;DHT22;3161;48.794;9.784;2022-12-29T08:47:41;6.20;99.90
6256;DHT22;3161;48.794;9.784;2022-12-29T08:50:09;6.30;99.90
6256;DHT22;3161;48.794;9.784;2022-12-29T08:52:36;6.40;99.90
6256;DHT22;3161;48.794;9.784;2022-12-29T08:55:04;6.50;99.90
6256;DHT22;3161;48.794;9.784;2022-12-29T08:57:32;6.60;99.90
6256;DHT22;3161;48.794;9.784;2022-12-29T09:00:00;6.70;99.90
6256;DHT22;3161;48.794;9.784;2022-12-29T09:02:27;6.80;99.90
6256;DHT22;3161;48.794;9.784;2022-12-29T09:04:55;6.90;99.90
6256;DHT22;3161;48.794;9.784;2022-12-29T09:07:24;7.00;99.90
6256;DHT22;3161;48.794;9.784;2022-12-29T09:09:51;7.00;99.90
6256;DHT22;3161;48.794;9.784;2022-12-29T09:12:19;7.10;99.90
6256;DHT22;3161;48.794;9.784;2022-12-29T09:14:47;7.20;99.90
6256;DHT22;3161;48.794;9.784;2022-12-29T09:17:16;7.30;99.90
6256;DHT22;3161;48.794;9.784;2022-12-29T09:20:03;7.50;99.90
6256;DHT22;3161;48.794;9.784;2022-12-29T09:22:30;7.60;99.90
6256;DHT22;3161;48.794;9.784;2022-12-29T09:25:08;7.80;99.90
6256;DHT22;3161;48.794;9.784;2022-12-29T09:27:36;8.00;99.90
6256;DHT22;3161;48.794;9.784;2022-12-29T09:30:06;8.20;99.90
6256;DHT22;3161;48.794;9.784;2022-12-29T09:32:34;8.40;99.90
6256;DHT22;3161;48.794;9.784;2022-12-29T09:35:02;8.60;99.90
6256;DHT22;3161;48.794;9.784;2022-12-29T09:37:30;8.80;99.90
6256;DHT22;3161;48.794;9.784;2022-12-29T09:39:58;9.00;99.90
6256;DHT22;3161;48.794;9.784;2022-12-29T09:42:29;9.20;99.90
6256;DHT22;3161;48.794;9.784;2022-12-29T09:45:11;9.30;99.90
6256;DHT22;3161;48.794;9.784;2022-12-29T09:47:40;9.50;99.90
6256;DHT22;3161;48.794;9.784;2022-12-29T09:52:52;9.80;99.90
6256;DHT22;3161;48.794;9.784;2022-12-29T09:55:19;10.00;99.90
6256;DHT22;3161;48.794;9.784;2022-12-29T09:57:56;10.20;99.90
6256;DHT22;3161;48.794;9.784;2022-12-29T10:01:12;10.40;99.90
6256;DHT22;3161;48.794;9.784;2022-12-29T10:03:36;10.50;99.90
6256;DHT22;3161;48.794;9.784;2022-12-29T10:05:36;10.60;99.90
6256;DHT22;3161;48.794;9.784;2022-12-29T10:10:59;10.70;99.90
6256;DHT22;3161;48.794;9.784;2022-12-29T10:13:36;10.80;99.90
6256;DHT22;3161;48.794;9.784;2022-12-29T10:16:23;10.90;99.90
6256;DHT22;3161;48.794;9.784;2022-12-29T10:18:56;11.00;99.90
6256;DHT22;3161;48.794;9.784;2022-12-29T10:24:21;11.30;99.90
6256;DHT22;3161;48.794;9.784;2022-12-29T10:26:51;11.50;99.90
6256;DHT22;3161;48.794;9.784;2022-12-29T10:29:33;11.60;99.90
6256;DHT22;3161;48.794;9.784;2022-12-29T10:32:17;11.70;99.90
6256;DHT22;3161;48.794;9.784;2022-12-29T10:34:49;11.80;99.90
6256;DHT22;3161;48.794;9.784;2022-12-29T10:40:15;11.90;99.90
6256;DHT22;3161;48.794;9.784;2022-12-29T10:42:45;12.00;99.90
6256;DHT22;3161;48.794;9.784;2022-12-29T10:45:14;12.00;99.90
6256;DHT22;3161;48.794;9.784;2022-12-29T10:48:45;12.00;99.90
6256;DHT22;3161;48.794;9.784;2022-12-29T10:50:25;12.00;99.90
6256;DHT22;3161;48.794;9.784;2022-12-29T10:52:53;12.00;99.90
6256;DHT22;3161;48.794;9.784;2022-12-29T10:55:28;12.10;99.90
6256;DHT22;3161;48.794;9.784;2022-12-29T10:57:55;12.10;99.90
6256;DHT22;3161;48.794;9.784;2022-12-29T11:00:24;12.10;99.90
6256;DHT22;3161;48.794;9.784;2022-12-29T11:06:01;12.20;99.90
6256;DHT22;3161;48.794;9.784;2022-12-29T11:08:34;12.20;99.90
6256;DHT22;3161;48.794;9.784;2022-12-29T11:11:02;12.30;99.90
6256;DHT22;3161;48.794;9.784;2022-12-29T11:13:32;12.30;99.90
6256;DHT22;3161;48.794;9.784;2022-12-29T11:16:00;12.30;99.90
6256;DHT22;3161;48.794;9.784;2022-12-29T11:18:37;12.40;99.90
6256;DHT22;3161;48.794;9.784;2022-12-29T11:21:27;12.40;99.90
6256;DHT22;3161;48.794;9.784;2022-12-29T11:23:40;12.50;99.90
6256;DHT22;3161;48.794;9.784;2022-12-29T11:28:41;12.50;99.90
6256;DHT22;3161;48.794;9.784;2022-12-29T11:31:09;12.50;99.90
6256;DHT22;3161;48.794;9.784;2022-12-29T11:33:39;12.50;99.90
6256;DHT22;3161;48.794;9.784;2022-12-29T11:36:19;12.50;99.90
6256;DHT22;3161;48.794;9.784;2022-12-29T11:38:48;12.50;99.90
6256;DHT22;3161;48.794;9.784;2022-12-29T11:41:27;12.60;99.90
6256;DHT22;3161;48.794;9.784;2022-12-29T11:43:58;12.60;99.90
6256;DHT22;3161;48.794;9.784;2022-12-29T11:46:34;12.60;99.90
6256;DHT22;3161;48.794;9.784;2022-12-29T11:49:03;12.70;99.90
6256;DHT22;3161;48.794;9.784;2022-12-29T11:51:43;12.70;99.90
6256;DHT22;3161;48.794;9.784;2022-12-29T11:54:03;12.70;99.90
6256;DHT22;3161;48.794;9.784;2022-12-29T11:56:42;12.70;99.90
6256;DHT22;3161;48.794;9.784;2022-12-29T11:59:24;12.70;99.90
6256;DHT22;3161;48.794;9.784;2022-12-29T12:01:50;12.70;99.90
6256;DHT22;3161;48.794;9.784;2022-12-29T12:04:20;12.70;99.90
6256;DHT22;3161;48.794;9.784;2022-12-29T12:07:02;12.60;99.90
6256;DHT22;3161;48.794;9.784;2022-12-29T12:09:29;12.60;99.90
6256;DHT22;3161;48.794;9.784;2022-12-29T12:11:59;12.70;99.90
6256;DHT22;3161;48.794;9.784;2022-12-29T12:14:34;12.70;99.90
6256;DHT22;3161;48.794;9.784;2022-12-29T12:17:04;12.70;99.90
6256;DHT22;3161;48.794;9.784;2022-12-29T12:19:38;12.70;99.90
6256;DHT22;3161;48.794;9.784;2022-12-29T12:24:58;12.70;99.90
6256;DHT22;3161;48.794;9.784;2022-12-29T12:27:33;12.80;99.90
6256;DHT22;3161;48.794;9.784;2022-12-29T12:35:45;12.80;99.90
6256;DHT22;3161;48.794;9.784;2022-12-29T12:38:24;12.70;99.90
6256;DHT22;3161;48.794;9.784;2022-12-29T12:40:55;12.80;99.90
6256;DHT22;3161;48.794;9.784;2022-12-29T12:43:47;12.70;99.90
6256;DHT22;3161;48.794;9.784;2022-12-29T12:51:47;12.70;99.90
6256;DHT22;3161;48.794;9.784;2022-12-29T13:00:08;12.70;99.90
6256;DHT22;3161;48.794;9.784;2022-12-29T13:03:03;12.60;99.90
6256;DHT22;3161;48.794;9.784;2022-12-29T13:05:32;12.50;99.90
6256;DHT22;3161;48.794;9.784;2022-12-29T13:08:22;12.40;99.90
6256;DHT22;3161;48.794;9.784;2022-12-29T13:16:41;12.20;99.90
6256;DHT22;3161;48.794;9.784;2022-12-29T13:19:20;12.20;99.90
6256;DHT22;3161;48.794;9.784;2022-12-29T13:24:36;12.10;99.90
6256;DHT22;3161;48.794;9.784;2022-12-29T13:27:09;12.20;99.90
6256;DHT22;3161;48.794;9.784;2022-12-29T13:32:42;12.30;99.90
6256;DHT22;3161;48.794;9.784;2022-12-29T13:40:48;12.20;99.90
6256;DHT22;3161;48.794;9.784;2022-12-29T13:43:16;12.20;99.90
6256;DHT22;3161;48.794;9.784;2022-12-29T13:45:45;12.20;99.90
6256;DHT22;3161;48.794;9.784;2022-12-29T13:48:20;12.10;99.90
6256;DHT22;3161;48.794;9.784;2022-12-29T13:50:55;12.10;99.90
6256;DHT22;3161;48.794;9.784;2022-12-29T13:53:42;12.20;99.90
6256;DHT22;3161;48.794;9.784;2022-12-29T13:56:14;12.10;99.90
6256;DHT22;3161;48.794;9.784;2022-12-29T13:58:53;12.10;99.90
6256;DHT22;3161;48.794;9.784;2022-12-29T14:01:35;12.10;99.90
6256;DHT22;3161;48.794;9.784;2022-12-29T14:04:20;12.10;99.90
6256;DHT22;3161;48.794;9.784;2022-12-29T14:06:40;12.10;99.90
6256;DHT22;3161;48.794;9.784;2022-12-29T14:09:46;12.10;99.90
6256;DHT22;3161;48.794;9.784;2022-12-29T14:12:38;12.10;99.90
6256;DHT22;3161;48.794;9.784;2022-12-29T14:17:40;12.00;99.90
6256;DHT22;3161;48.794;9.784;2022-12-29T14:20:23;12.00;99.90
6256;DHT22;3161;48.794;9.784;2022-12-29T14:25:54;12.00;99.90
6256;DHT22;3161;48.794;9.784;2022-12-29T14:28:27;12.00;99.90
6256;DHT22;3161;48.794;9.784;2022-12-29T14:30:58;12.10;99.90
6256;DHT22;3161;48.794;9.784;2022-12-29T14:33:31;12.20;99.90
6256;DHT22;3161;48.794;9.784;2022-12-29T14:36:19;12.30;99.90
6256;DHT22;3161;48.794;9.784;2022-12-29T14:38:48;12.30;99.90
6256;DHT22;3161;48.794;9.784;2022-12-29T14:41:18;12.40;99.90
6256;DHT22;3161;48.794;9.784;2022-12-29T14:49:28;12.40;99.90
6256;DHT22;3161;48.794;9.784;2022-12-29T14:54:45;12.40;99.90
6256;DHT22;3161;48.794;9.784;2022-12-29T14:57:33;12.30;99.90
6256;DHT22;3161;48.794;9.784;2022-12-29T15:00:22;12.30;99.90
6256;DHT22;3161;48.794;9.784;2022-12-29T15:03:02;12.20;99.90
6256;DHT22;3161;48.794;9.784;2022-12-29T15:05:42;12.20;99.90
6256;DHT22;3161;48.794;9.784;2022-12-29T15:08:07;12.20;99.90
6256;DHT22;3161;48.794;9.784;2022-12-29T15:10:55;12.20;99.90
6256;DHT22;3161;48.794;9.784;2022-12-29T15:13:31;12.20;99.90
6256;DHT22;3161;48.794;9.784;2022-12-29T15:15:53;12.10;99.90
6256;DHT22;3161;48.794;9.784;2022-12-29T15:18:26;12.10;99.90
6256;DHT22;3161;48.794;9.784;2022-12-29T15:21:05;12.00;99.90
6256;DHT22;3161;48.794;9.784;2022-12-29T15:23:37;12.00;99.90
6256;DHT22;3161;48.794;9.784;2022-12-29T15:26:06;11.90;99.90
6256;DHT22;3161;48.794;9.784;2022-12-29T15:28:45;11.90;99.90
6256;DHT22;3161;48.794;9.784;2022-12-29T15:31:16;11.80;99.90
6256;DHT22;3161;48.794;9.784;2022-12-29T15:33:47;11.80;99.90
6256;DHT22;3161;48.794;9.784;2022-12-29T15:36:27;11.70;99.90
6256;DHT22;3161;48.794;9.784;2022-12-29T15:38:55;11.60;99.90
6256;DHT22;3161;48.794;9.784;2022-12-29T15:41:43;11.50;99.90
6256;DHT22;3161;48.794;9.784;2022-12-29T15:44:37;11.40;99.90
6256;DHT22;3161;48.794;9.784;2022-12-29T15:47:14;11.40;99.90
6256;DHT22;3161;48.794;9.784;2022-12-29T15:49:43;11.30;99.90
6256;DHT22;3161;48.794;9.784;2022-12-29T15:52:13;11.20;99.90
6256;DHT22;3161;48.794;9.784;2022-12-29T15:54:42;11.20;99.90
6256;DHT22;3161;48.794;9.784;2022-12-29T15:57:24;11.10;99.90
6256;DHT22;3161;48.794;9.784;2022-12-29T15:59:52;11.10;99.90
6256;DHT22;3161;48.794;9.784;2022-12-29T16:02:24;11.00;99.90
6256;DHT22;3161;48.794;9.784;2022-12-29T16:04:52;11.00;99.90
6256;DHT22;3161;48.794;9.784;2022-12-29T16:07:26;11.00;99.90
6256;DHT22;3161;48.794;9.784;2022-12-29T16:09:58;10.90;99.90
6256;DHT22;3161;48.794;9.784;2022-12-29T16:12:35;10.90;99.90
6256;DHT22;3161;48.794;9.784;2022-12-29T16:15:06;10.90;99.90
6256;DHT22;3161;48.794;9.784;2022-12-29T16:17:45;10.90;99.90
6256;DHT22;3161;48.794;9.784;2022-12-29T16:20:23;10.90;99.90
6256;DHT22;3161;48.794;9.784;2022-12-29T16:22:57;10.90;99.90
6256;DHT22;3161;48.794;9.784;2022-12-29T16:25:29;11.00;99.90
6256;DHT22;3161;48.794;9.784;2022-12-29T16:28:02;11.00;99.90
6256;DHT22;3161;48.794;9.784;2022-12-29T16:30:32;11.00;99.90
6256;DHT22;3161;48.794;9.784;2022-12-29T16:33:02;11.00;99.90
6256;DHT22;3161;48.794;9.784;2022-12-29T16:35:38;11.00;99.90
6256;DHT22;3161;48.794;9.784;2022-12-29T16:41:01;11.00;99.90
6256;DHT22;3161;48.794;9.784;2022-12-29T16:48:36;11.00;99.90
6256;DHT22;3161;48.794;9.784;2022-12-29T16:51:13;11.00;99.90
6256;DHT22;3161;48.794;9.784;2022-12-29T16:53:46;10.90;99.90
6256;DHT22;3161;48.794;9.784;2022-12-29T16:56:26;11.00;99.90
6256;DHT22;3161;48.794;9.784;2022-12-29T17:01:34;11.00;99.90
6256;DHT22;3161;48.794;9.784;2022-12-29T17:04:04;11.00;99.90
6256;DHT22;3161;48.794;9.784;2022-12-29T17:06:31;10.90;99.90
6256;DHT22;3161;48.794;9.784;2022-12-29T17:08:59;10.80;99.90
6256;DHT22;3161;48.794;9.784;2022-12-29T17:11:30;10.70;99.90
6256;DHT22;3161;48.794;9.784;2022-12-29T17:16:49;10.60;99.90
6256;DHT22;3161;48.794;9.784;2022-12-29T17:19:18;10.50;99.90
6256;DHT22;3161;48.794;9.784;2022-12-29T17:21:47;10.50;99.90
6256;DHT22;3161;48.794;9.784;2022-12-29T17:24:19;10.40;99.90
6256;DHT22;3161;48.794;9.784;2022-12-29T17:26:50;10.40;99.90
6256;DHT22;3161;48.794;9.784;2022-12-29T17:29:32;10.40;99.90
6256;DHT22;3161;48.794;9.784;2022-12-29T17:32:01;10.40;99.90
6256;DHT22;3161;48.794;9.784;2022-12-29T17:34:29;10.40;99.90
6256;DHT22;3161;48.794;9.784;2022-12-29T17:36:58;10.40;99.90
6256;DHT22;3161;48.794;9.784;2022-12-29T17:39:25;10.40;99.90
6256;DHT22;3161;48.794;9.784;2022-12-29T17:41:53;10.40;99.90
6256;DHT22;3161;48.794;9.784;2022-12-29T17:44:21;10.30;99.90
6256;DHT22;3161;48.794;9.784;2022-12-29T17:46:50;11.10;99.90
6256;DHT22;3161;48.794;9.784;2022-12-29T17:49:18;10.30;99.90
6256;DHT22;3161;48.794;9.784;2022-12-29T17:51:46;10.20;99.90
6256;DHT22;3161;48.794;9.784;2022-12-29T17:54:23;10.20;99.90
6256;DHT22;3161;48.794;9.784;2022-12-29T17:56:48;10.20;99.90
6256;DHT22;3161;48.794;9.784;2022-12-29T17:59:19;10.20;99.90
6256;DHT22;3161;48.794;9.784;2022-12-29T18:01:47;10.20;99.90
6256;DHT22;3161;48.794;9.784;2022-12-29T18:04:32;10.10;99.90
6256;DHT22;3161;48.794;9.784;2022-12-29T18:06:59;10.00;99.90
6256;DHT22;3161;48.794;9.784;2022-12-29T18:09:27;10.00;99.90
6256;DHT22;3161;48.794;9.784;2022-12-29T18:11:56;10.00;99.90
6256;DHT22;3161;48.794;9.784;2022-12-29T18:14:23;10.00;99.90
6256;DHT22;3161;48.794;9.784;2022-12-29T18:16:51;9.90;99.90